createdAt,value
2022-11-01T00:02:08.691Z,4.80
2022-11-01T00:04:35.644Z,4.70
2022-11-01T00:07:02.800Z,6.18
2022-11-01T00:09:30.011Z,5.80
2022-11-01T00:11:56.955Z,7.20
2022-11-01T00:14:23.791Z,5.72
2022-11-01T00:16:51.192Z,5.93
2022-11-01T00:19:18.666Z,6.35
2022-11-01T00:21:45.853Z,6.55
2022-11-01T00:24:12.593Z,6.70
2022-11-01T00:26:39.689Z,5.32
2022-11-01T00:29:06.577Z,6.00
2022-11-01T00:31:33.552Z,6.35
2022-11-01T00:34:03.893Z,7.43
2022-11-01T00:36:30.864Z,5.95
2022-11-01T00:38:57.801Z,6.22
2022-11-01T00:41:24.722Z,5.70
2022-11-01T00:43:51.635Z,6.30
2022-11-01T00:46:18.880Z,5.72
2022-11-01T00:48:45.734Z,5.18
2022-11-01T00:51:12.644Z,5.72
2022-11-01T00:53:39.494Z,5.38
2022-11-01T00:56:07.558Z,4.03
2022-11-01T00:58:35.636Z,5.25
2022-11-01T01:01:02.528Z,5.22
2022-11-01T01:03:29.601Z,4.97
2022-11-01T01:05:56.551Z,5.55
2022-11-01T01:08:24.195Z,5.88
2022-11-01T01:10:51.585Z,5.35
2022-11-01T01:13:18.860Z,3.80
2022-11-01T01:15:45.957Z,4.45
2022-11-01T01:18:13.065Z,4.25
2022-11-01T01:20:40.090Z,4.85
2022-11-01T01:23:07.197Z,3.28
2022-11-01T01:25:34.089Z,3.47
2022-11-01T01:28:01.240Z,3.92
2022-11-01T01:30:28.489Z,4.75
2022-11-01T01:32:55.354Z,4.35
2022-11-01T01:35:22.349Z,3.42
2022-11-01T01:37:49.700Z,3.53
2022-11-01T01:40:16.781Z,3.30
2022-11-01T01:42:43.855Z,3.47
2022-11-01T01:45:26.018Z,4.35
2022-11-01T01:47:55.156Z,3.35
2022-11-01T01:50:30.320Z,3.92
2022-11-01T01:55:50.892Z,4.43
2022-11-01T01:58:22.217Z,3.20
2022-11-01T02:00:49.660Z,3.15
2022-11-01T02:03:16.893Z,4.28
2022-11-01T02:06:17.621Z,3.25
2022-11-01T02:09:00.418Z,3.53
2022-11-01T02:11:27.695Z,2.60
2022-11-01T02:13:55.416Z,3.13
2022-11-01T02:16:43.054Z,2.70
2022-11-01T02:19:33.804Z,2.25
2022-11-01T02:22:33.496Z,3.28
2022-11-01T02:25:30.728Z,3.10
2022-11-01T02:28:26.275Z,2.53
2022-11-01T02:31:14.771Z,2.47
2022-11-01T02:33:47.719Z,3.35
2022-11-01T02:36:28.037Z,2.47
2022-11-01T02:39:11.406Z,2.75
2022-11-01T02:41:49.867Z,2.35
2022-11-01T02:44:22.249Z,2.60
2022-11-01T02:47:01.768Z,2.65
2022-11-01T02:49:31.073Z,4.93
2022-11-01T02:51:59.629Z,2.78
2022-11-01T02:54:40.525Z,2.58
2022-11-01T02:57:13.125Z,1.85
2022-11-01T02:59:46.482Z,2.70
2022-11-01T03:02:39.822Z,2.45
2022-11-01T03:05:29.665Z,2.60
2022-11-01T03:08:01.002Z,3.30
2022-11-01T03:10:50.532Z,3.35
2022-11-01T03:13:30.065Z,2.33
2022-11-01T03:16:06.459Z,2.63
2022-11-01T03:18:36.851Z,2.97
2022-11-01T03:21:17.123Z,2.17
2022-11-01T03:24:04.088Z,3.08
2022-11-01T03:26:33.660Z,2.63
2022-11-01T03:29:06.767Z,2.80
2022-11-01T03:31:37.825Z,2.50
2022-11-01T03:34:13.988Z,2.72
2022-11-01T03:36:46.741Z,2.65
2022-11-01T03:39:22.706Z,2.78
2022-11-01T03:41:54.027Z,2.88
2022-11-01T03:44:21.086Z,2.05
2022-11-01T03:46:49.167Z,2.50
2022-11-01T03:49:19.872Z,2.80
2022-11-01T03:51:47.045Z,3.30
2022-11-01T03:54:13.944Z,3.10
2022-11-01T03:56:41.074Z,3.00
2022-11-01T03:59:08.757Z,3.67
2022-11-01T04:01:35.969Z,2.53
2022-11-01T04:04:03.694Z,2.53
2022-11-01T04:06:30.632Z,2.78
2022-11-01T04:08:57.765Z,2.70
2022-11-01T04:11:24.701Z,3.00
2022-11-01T04:13:51.688Z,2.85
2022-11-01T04:16:37.189Z,3.47
2022-11-01T04:21:49.669Z,2.25
2022-11-01T04:24:21.319Z,2.30
2022-11-01T04:26:48.637Z,3.42
2022-11-01T04:29:15.475Z,2.88
2022-11-01T04:31:42.189Z,3.20
2022-11-01T04:34:09.030Z,3.38
2022-11-01T04:36:37.759Z,3.33
2022-11-01T04:39:04.816Z,2.83
2022-11-01T04:41:31.588Z,3.05
2022-11-01T04:43:59.505Z,3.53
2022-11-01T04:46:29.954Z,3.38
2022-11-01T04:48:56.813Z,3.03
2022-11-01T04:51:23.587Z,3.25
2022-11-01T04:53:50.355Z,3.00
2022-11-01T04:56:17.143Z,2.72
2022-11-01T04:58:46.447Z,2.92
2022-11-01T05:01:14.936Z,2.90
2022-11-01T05:03:42.606Z,3.40
2022-11-01T05:06:09.677Z,3.70
2022-11-01T05:08:36.701Z,4.00
2022-11-01T05:11:03.478Z,3.65
2022-11-01T05:13:30.385Z,2.78
2022-11-01T05:16:18.378Z,8.38
2022-11-01T05:18:43.929Z,3.60
2022-11-01T05:21:11.531Z,3.33
2022-11-01T05:23:38.443Z,3.40
2022-11-01T05:26:05.642Z,3.15
2022-11-01T05:28:32.537Z,3.13
2022-11-01T05:30:59.185Z,3.00
2022-11-01T05:33:25.853Z,2.65
2022-11-01T05:35:52.849Z,3.22
2022-11-01T05:38:20.024Z,3.22
2022-11-01T05:40:46.993Z,3.70
2022-11-01T05:43:13.910Z,3.22
2022-11-01T05:45:40.776Z,3.38
2022-11-01T05:48:07.641Z,2.90
2022-11-01T05:50:34.651Z,2.92
2022-11-01T05:53:08.832Z,3.20
2022-11-01T05:55:36.720Z,3.20
2022-11-01T05:58:04.016Z,3.40
2022-11-01T06:00:31.342Z,3.00
2022-11-01T06:02:59.544Z,3.85
2022-11-01T06:05:28.692Z,3.17
2022-11-01T06:07:56.725Z,3.38
2022-11-01T06:10:23.721Z,3.17
2022-11-01T06:12:50.592Z,3.20
2022-11-01T06:15:18.167Z,3.00
2022-11-01T06:17:44.968Z,3.38
2022-11-01T06:20:12.350Z,3.90
2022-11-01T06:22:39.618Z,3.15
2022-11-01T06:25:07.171Z,2.97
2022-11-01T06:27:33.880Z,3.55
2022-11-01T06:30:00.784Z,3.67
2022-11-01T06:32:27.577Z,3.72
2022-11-01T06:34:54.620Z,2.97
2022-11-01T06:37:21.582Z,3.90
2022-11-01T06:39:48.514Z,2.88
2022-11-01T06:42:15.263Z,3.30
2022-11-01T06:44:41.989Z,4.70
2022-11-01T06:47:08.813Z,3.60
2022-11-01T06:49:35.702Z,2.97
2022-11-01T06:52:03.362Z,3.40
2022-11-01T06:54:30.206Z,3.03
2022-11-01T06:56:57.112Z,3.97
2022-11-01T06:59:25.148Z,2.78
2022-11-01T07:01:55.012Z,4.18
2022-11-01T07:04:22.182Z,3.30
2022-11-01T07:06:49.075Z,3.38
2022-11-01T07:09:15.881Z,3.15
2022-11-01T07:11:42.688Z,3.40
2022-11-01T07:14:09.433Z,2.90
2022-11-01T07:16:36.163Z,3.50
2022-11-01T07:19:03.050Z,3.70
2022-11-01T07:21:29.845Z,3.22
2022-11-01T07:23:58.685Z,3.30
2022-11-01T07:26:25.689Z,3.20
2022-11-01T07:28:52.628Z,3.17
2022-11-01T07:31:19.537Z,2.95
2022-11-01T07:33:46.334Z,3.47
2022-11-01T07:36:13.118Z,5.03
2022-11-01T07:38:39.992Z,4.57
2022-11-01T07:41:06.947Z,4.60
2022-11-01T07:43:35.948Z,7.10
2022-11-01T07:46:05.736Z,5.80
2022-11-01T07:48:32.954Z,4.18
2022-11-01T07:50:59.948Z,2.92
2022-11-01T07:53:26.834Z,2.80
2022-11-01T07:55:53.746Z,3.08
2022-11-01T07:58:20.605Z,2.42
2022-11-01T08:00:47.427Z,3.00
2022-11-01T08:03:19.437Z,3.40
2022-11-01T08:05:47.736Z,4.07
2022-11-01T08:08:16.388Z,2.67
2022-11-01T08:10:44.349Z,3.13
2022-11-01T08:13:19.598Z,2.40
2022-11-01T08:18:14.902Z,3.70
2022-11-01T08:20:41.815Z,2.08
2022-11-01T08:23:08.916Z,2.22
2022-11-01T08:25:36.265Z,2.72
2022-11-01T08:28:05.892Z,2.47
2022-11-01T08:30:33.060Z,2.92
2022-11-01T08:33:04.272Z,3.10
2022-11-01T08:35:32.665Z,1.83
2022-11-01T08:37:59.578Z,2.90
2022-11-01T08:40:28.457Z,4.15
2022-11-01T08:42:55.487Z,2.08
2022-11-01T08:45:22.421Z,2.55
2022-11-01T08:47:49.490Z,2.20
2022-11-01T08:50:17.791Z,2.85
2022-11-01T08:52:44.683Z,2.45
2022-11-01T08:55:11.792Z,2.47
2022-11-01T08:57:39.003Z,2.50
2022-11-01T09:00:13.888Z,3.03
2022-11-01T09:02:40.775Z,2.35
2022-11-01T09:05:08.796Z,2.67
2022-11-01T09:07:37.226Z,3.65
2022-11-01T09:10:06.059Z,2.80
2022-11-01T09:12:33.300Z,3.35
2022-11-01T09:15:00.172Z,2.15
2022-11-01T09:17:27.391Z,4.13
2022-11-01T09:19:54.149Z,2.53
2022-11-01T09:22:21.069Z,2.00
2022-11-01T09:24:47.955Z,2.30
2022-11-01T09:27:14.884Z,2.50
2022-11-01T09:29:44.214Z,2.22
2022-11-01T09:32:13.537Z,2.25
2022-11-01T09:34:40.403Z,2.20
2022-11-01T09:37:07.146Z,2.38
2022-11-01T09:39:34.061Z,1.90
2022-11-01T09:42:10.689Z,2.40
2022-11-01T09:44:43.087Z,3.22
2022-11-01T09:47:21.141Z,2.45
2022-11-01T09:49:56.130Z,2.50
2022-11-01T09:52:24.933Z,2.33
2022-11-01T09:54:52.201Z,2.60
2022-11-01T09:57:35.960Z,1.88
2022-11-01T10:00:13.698Z,2.08
2022-11-01T10:03:02.494Z,3.83
2022-11-01T10:05:48.877Z,2.00
2022-11-01T10:08:30.950Z,2.22
2022-11-01T10:11:00.454Z,2.20
2022-11-01T10:13:58.635Z,2.10
2022-11-01T10:16:38.117Z,2.22
2022-11-01T10:19:17.526Z,2.20
2022-11-01T10:21:48.344Z,2.20
2022-11-01T10:24:50.313Z,1.90
2022-11-01T10:27:26.581Z,1.92
2022-11-01T10:30:04.256Z,2.20
2022-11-01T10:32:40.458Z,2.55
2022-11-01T10:35:16.190Z,1.80
2022-11-01T10:38:04.014Z,2.92
2022-11-01T10:40:46.808Z,1.88
2022-11-01T10:43:21.783Z,2.70
2022-11-01T10:45:53.366Z,2.20
2022-11-01T10:48:38.167Z,2.15
2022-11-01T10:51:07.301Z,1.75
2022-11-01T10:53:40.689Z,3.63
2022-11-01T10:56:10.721Z,2.75
2022-11-01T10:59:02.813Z,2.85
2022-11-01T11:01:37.215Z,2.08
2022-11-01T11:04:07.915Z,1.85
2022-11-01T11:06:37.101Z,2.17
2022-11-01T11:09:05.274Z,2.20
2022-11-01T11:11:40.990Z,1.83
2022-11-01T11:14:11.851Z,2.28
2022-11-01T11:16:55.949Z,2.55
2022-11-01T11:19:24.593Z,2.10
2022-11-01T11:21:53.898Z,1.85
2022-11-01T11:24:30.537Z,2.88
2022-11-01T11:26:58.441Z,1.95
2022-11-01T11:29:35.545Z,2.30
2022-11-01T11:32:04.136Z,2.30
2022-11-01T11:34:34.497Z,2.35
2022-11-01T11:37:03.516Z,1.60
2022-11-01T11:39:38.236Z,1.77
2022-11-01T11:42:20.350Z,3.33
2022-11-01T11:44:52.225Z,2.05
2022-11-01T11:49:58.241Z,3.00
2022-11-01T11:52:38.052Z,2.30
2022-11-01T11:55:06.412Z,2.35
2022-11-01T11:57:34.552Z,2.13
2022-11-01T12:00:05.745Z,2.17
2022-11-01T12:02:42.028Z,2.50
2022-11-01T12:05:16.280Z,2.03
2022-11-01T12:07:52.278Z,2.97
2022-11-01T12:10:28.257Z,1.98
2022-11-01T12:12:56.941Z,1.90
2022-11-01T12:15:29.060Z,3.10
2022-11-01T12:17:57.368Z,2.08
2022-11-01T12:20:25.976Z,2.35
2022-11-01T12:22:58.682Z,2.40
2022-11-01T12:25:25.752Z,2.50
2022-11-01T12:27:57.860Z,1.85
2022-11-01T12:30:26.902Z,1.67
2022-11-01T12:32:57.695Z,2.25
2022-11-01T12:35:41.304Z,2.10
2022-11-01T12:38:35.722Z,2.50
2022-11-01T12:41:13.880Z,2.97
2022-11-01T12:43:53.153Z,2.95
2022-11-01T12:46:45.070Z,2.20
2022-11-01T12:49:16.169Z,2.50
2022-11-01T12:51:49.281Z,2.70
2022-11-01T12:54:27.580Z,2.30
2022-11-01T12:56:58.810Z,2.22
2022-11-01T12:59:34.617Z,3.03
2022-11-01T13:02:31.747Z,3.10
2022-11-01T13:05:28.883Z,2.20
2022-11-01T13:08:17.226Z,2.03
2022-11-01T13:10:47.157Z,2.83
2022-11-01T13:13:47.257Z,2.28
2022-11-01T13:16:30.649Z,2.72
2022-11-01T13:19:23.531Z,1.83
2022-11-01T13:21:56.534Z,1.80
2022-11-01T13:24:28.768Z,2.45
2022-11-01T13:27:19.898Z,2.53
2022-11-01T13:29:56.553Z,2.10
2022-11-01T13:32:48.956Z,2.45
2022-11-01T13:35:38.443Z,2.72
2022-11-01T13:38:11.277Z,2.40
2022-11-01T13:41:07.154Z,2.45
2022-11-01T13:43:44.785Z,2.40
2022-11-01T13:46:17.393Z,2.75
2022-11-01T13:49:19.924Z,3.10
2022-11-01T13:52:01.602Z,2.53
2022-11-01T13:55:06.284Z,1.88
2022-11-01T13:57:33.569Z,2.33
2022-11-01T14:00:04.601Z,2.33
2022-11-01T14:02:31.458Z,2.10
2022-11-01T14:05:00.139Z,3.10
2022-11-01T14:07:33.533Z,2.25
2022-11-01T14:10:00.445Z,2.67
2022-11-01T14:12:33.310Z,2.15
2022-11-01T14:15:12.016Z,2.70
2022-11-01T14:17:51.117Z,2.05
2022-11-01T14:20:21.036Z,3.25
2022-11-01T14:22:47.747Z,2.22
2022-11-01T14:25:14.603Z,2.05
2022-11-01T14:27:50.564Z,2.88
2022-11-01T14:30:23.674Z,2.22
2022-11-01T14:32:54.674Z,2.30
2022-11-01T14:35:26.782Z,2.28
2022-11-01T14:37:57.457Z,3.15
2022-11-01T14:40:33.381Z,3.47
2022-11-01T14:43:34.489Z,2.70
2022-11-01T14:46:06.403Z,2.33
2022-11-01T14:48:44.285Z,2.40
2022-11-01T14:51:22.916Z,2.65
2022-11-01T14:53:57.464Z,2.78
2022-11-01T14:56:36.996Z,2.25
2022-11-01T14:59:16.748Z,2.60
2022-11-01T15:01:45.663Z,3.97
2022-11-01T15:04:46.380Z,2.47
2022-11-01T15:07:30.601Z,2.40
2022-11-01T15:10:08.557Z,2.95
2022-11-01T15:12:47.547Z,2.22
2022-11-01T15:15:22.445Z,2.00
2022-11-01T15:18:16.093Z,3.00
2022-11-01T15:20:48.717Z,2.50
2022-11-01T15:23:19.561Z,2.92
2022-11-01T15:25:57.908Z,2.50
2022-11-01T15:28:29.589Z,2.25
2022-11-01T15:31:01.447Z,3.20
2022-11-01T15:33:32.792Z,2.85
2022-11-01T15:36:08.866Z,3.25
2022-11-01T15:38:49.924Z,3.38
2022-11-01T15:41:31.108Z,3.13
2022-11-01T15:44:00.270Z,3.40
2022-11-01T15:46:48.066Z,3.05
2022-11-01T15:49:20.990Z,2.72
2022-11-01T15:52:00.433Z,2.60
2022-11-01T15:54:42.850Z,3.20
2022-11-01T15:57:40.532Z,3.90
2022-11-01T16:00:25.410Z,2.63
2022-11-01T16:03:04.577Z,2.20
2022-11-01T16:05:44.886Z,2.80
2022-11-01T16:08:22.888Z,2.63
2022-11-01T16:10:49.912Z,3.80
2022-11-01T16:13:19.617Z,3.08
2022-11-01T16:16:08.132Z,3.00
2022-11-01T16:18:37.207Z,4.07
2022-11-01T16:21:20.730Z,3.25
2022-11-01T16:23:57.957Z,2.85
2022-11-01T16:26:25.154Z,2.78
2022-11-01T16:28:53.518Z,3.47
2022-11-01T16:31:25.710Z,3.80
2022-11-01T16:33:54.137Z,4.03
2022-11-01T16:36:20.906Z,3.20
2022-11-01T16:38:50.556Z,3.58
2022-11-01T16:41:20.785Z,3.53
2022-11-01T16:43:52.161Z,3.00
2022-11-01T16:46:20.408Z,3.10
2022-11-01T16:48:54.886Z,3.20
2022-11-01T16:51:26.984Z,3.37
2022-11-01T16:53:56.346Z,3.58
2022-11-01T16:56:37.094Z,3.35
2022-11-01T16:59:25.365Z,3.00
2022-11-01T17:01:55.681Z,3.67
2022-11-01T17:04:22.914Z,3.22
2022-11-01T17:06:50.233Z,3.33
2022-11-01T17:09:19.805Z,2.63
2022-11-01T17:11:51.373Z,3.65
2022-11-01T17:14:19.358Z,4.45
2022-11-01T17:16:47.939Z,3.35
2022-11-01T17:19:32.325Z,3.25
2022-11-01T17:22:03.364Z,3.75
2022-11-01T17:24:31.259Z,3.85
2022-11-01T17:27:01.285Z,4.63
2022-11-01T17:29:28.818Z,4.03
2022-11-01T17:31:55.677Z,3.45
2022-11-01T17:34:22.445Z,3.33
2022-11-01T17:36:50.132Z,3.58
2022-11-01T17:39:17.034Z,4.03
2022-11-01T17:41:44.021Z,4.43
2022-11-01T17:44:12.321Z,4.20
2022-11-01T17:46:40.146Z,4.15
2022-11-01T17:49:07.015Z,4.43
2022-11-01T17:51:34.394Z,4.25
2022-11-01T17:54:01.725Z,3.90
2022-11-01T17:56:28.574Z,5.00
2022-11-01T17:58:55.227Z,4.25
2022-11-01T18:01:22.206Z,4.72
2022-11-01T18:03:49.407Z,4.38
2022-11-01T18:06:16.991Z,4.03
2022-11-01T18:08:50.514Z,4.57
2022-11-01T18:11:46.248Z,4.70
2022-11-01T18:14:24.754Z,5.57
2022-11-01T18:17:17.749Z,4.78
2022-11-01T18:19:53.661Z,4.38
2022-11-01T18:22:49.788Z,4.88
2022-11-01T18:25:42.332Z,4.72
2022-11-01T18:28:15.565Z,5.85
2022-11-01T18:30:47.172Z,6.40
2022-11-01T18:33:32.487Z,5.07
2022-11-01T18:36:01.316Z,5.15
2022-11-01T18:38:30.482Z,5.20
2022-11-01T18:41:00.409Z,5.18
2022-11-01T18:43:38.056Z,4.63
2022-11-01T18:46:25.823Z,5.40
2022-11-01T18:49:00.426Z,5.43
2022-11-01T18:51:31.649Z,5.93
2022-11-01T18:54:11.496Z,6.00
2022-11-01T18:56:40.417Z,5.80
2022-11-01T18:59:26.291Z,5.13
2022-11-01T19:02:30.850Z,4.97
2022-11-01T19:05:18.426Z,5.32
2022-11-01T19:08:10.892Z,5.45
2022-11-01T19:10:41.538Z,5.13
2022-11-01T19:13:18.308Z,4.93
2022-11-01T19:15:47.096Z,6.82
2022-11-01T19:18:20.017Z,4.82
2022-11-01T19:20:50.722Z,5.45
2022-11-01T19:23:36.721Z,5.03
2022-11-01T19:26:08.372Z,5.00
2022-11-01T19:28:38.640Z,4.97
2022-11-01T19:31:15.122Z,6.70
2022-11-01T19:33:46.447Z,4.63
2022-11-01T19:36:19.222Z,5.35
2022-11-01T19:38:48.144Z,4.72
2022-11-01T19:41:41.454Z,5.05
2022-11-01T19:44:16.375Z,5.82
2022-11-01T19:46:43.222Z,5.18
2022-11-01T19:49:30.205Z,4.93
2022-11-01T19:52:09.283Z,5.47
2022-11-01T19:54:38.400Z,5.07
2022-11-01T19:57:27.498Z,4.90
2022-11-01T19:59:58.044Z,5.15
2022-11-01T20:02:27.555Z,4.88
2022-11-01T20:05:00.271Z,4.18
2022-11-01T20:07:28.353Z,3.78
2022-11-01T20:09:58.648Z,4.03
2022-11-01T20:12:25.853Z,4.28
2022-11-01T20:14:52.687Z,5.25
2022-11-01T20:17:19.473Z,4.97
2022-11-01T20:19:46.338Z,5.30
2022-11-01T20:22:12.975Z,4.55
2022-11-01T20:24:39.851Z,4.78
2022-11-01T20:27:06.733Z,6.00
2022-11-01T20:29:33.489Z,5.55
2022-11-01T20:32:00.285Z,5.30
2022-11-01T20:34:28.875Z,5.95
2022-11-01T20:37:22.684Z,6.32
2022-11-01T20:39:43.761Z,6.30
2022-11-01T20:42:10.520Z,5.95
2022-11-01T20:44:37.203Z,6.18
2022-11-01T20:47:03.957Z,7.18
2022-11-01T20:49:30.753Z,6.53
2022-11-01T20:52:03.910Z,6.95
2022-11-01T20:54:35.251Z,6.90
2022-11-01T20:57:02.526Z,6.90
2022-11-01T20:59:29.369Z,6.88
2022-11-01T21:01:56.240Z,6.75
2022-11-01T21:04:23.130Z,7.05
2022-11-01T21:06:50.070Z,6.22
2022-11-01T21:09:40.855Z,7.28
2022-11-01T21:12:30.337Z,6.97
2022-11-01T21:15:01.115Z,6.90
2022-11-01T21:17:28.015Z,7.57
2022-11-01T21:19:54.777Z,6.35
2022-11-01T21:22:22.031Z,6.25
2022-11-01T21:24:49.901Z,6.45
2022-11-01T21:27:23.884Z,6.03
2022-11-01T21:29:52.079Z,6.20
2022-11-01T21:32:34.599Z,6.97
2022-11-01T21:35:20.177Z,6.50
2022-11-01T21:37:54.861Z,6.47
2022-11-01T21:40:28.618Z,7.00
2022-11-01T21:42:57.593Z,6.50
2022-11-01T21:45:32.205Z,6.80
2022-11-01T21:48:16.685Z,5.35
2022-11-01T21:50:43.537Z,6.68
2022-11-01T21:53:10.263Z,7.85
2022-11-01T21:55:37.015Z,7.63
2022-11-01T21:58:04.008Z,8.30
2022-11-01T22:00:30.960Z,8.32
2022-11-01T22:02:57.806Z,8.25
2022-11-01T22:05:24.725Z,9.25
2022-11-01T22:07:51.329Z,9.40
2022-11-01T22:10:18.271Z,9.48
2022-11-01T22:12:45.161Z,9.57
2022-11-01T22:15:12.017Z,9.70
2022-11-01T22:17:38.837Z,9.27
2022-11-01T22:20:05.879Z,9.70
2022-11-01T22:22:32.734Z,9.75
2022-11-01T22:24:59.383Z,9.77
2022-11-01T22:27:26.163Z,9.60
2022-11-01T22:29:52.819Z,8.73
2022-11-01T22:32:19.756Z,9.50
2022-11-01T22:34:46.646Z,9.68
2022-11-01T22:37:13.491Z,8.80
2022-11-01T22:39:41.105Z,9.32
2022-11-01T22:42:16.203Z,8.15
2022-11-01T22:44:45.720Z,8.73
2022-11-01T22:47:42.824Z,7.28
2022-11-01T22:50:13.898Z,7.88
2022-11-01T22:52:43.579Z,8.15
2022-11-01T22:55:10.235Z,7.05
2022-11-01T22:57:47.937Z,8.10
2022-11-01T23:00:31.729Z,7.05
2022-11-01T23:03:18.841Z,6.55
2022-11-01T23:05:46.896Z,6.55
2022-11-01T23:08:35.514Z,6.78
2022-11-01T23:11:04.698Z,5.28
2022-11-01T23:13:52.708Z,5.85
2022-11-01T23:16:30.014Z,5.47
2022-11-01T23:19:00.079Z,5.20
2022-11-01T23:21:27.916Z,5.40
2022-11-01T23:23:55.337Z,5.78
2022-11-01T23:26:23.272Z,5.47
2022-11-01T23:28:53.953Z,5.95
2022-11-01T23:31:22.278Z,5.32
2022-11-01T23:33:50.472Z,5.53
2022-11-01T23:36:26.676Z,4.93
2022-11-01T23:41:26.821Z,5.43
2022-11-01T23:44:03.498Z,6.22
2022-11-01T23:46:30.448Z,5.05
2022-11-01T23:49:02.233Z,5.68
2022-11-01T23:51:31.264Z,4.97
2022-11-01T23:53:58.926Z,5.47
2022-11-01T23:56:26.936Z,5.15
2022-11-01T23:58:59.097Z,5.10
